Terminal Aerodrome Forecast
Issued by NWS

Home | Current Version | Previous Version | Text Only | Print | Product List | Glossary On
Versions: 1 2 3 4 5 6 7 8 9 10 11 12 13
000
FTUS46 KOTX 241130
TAFPUW
TAF
KPUW 241130Z 2412/2512 13005KT P6SM SCT100 SCT150
     FM241700 25009KT P6SM FEW050 SCT080
     FM250400 VRB02KT P6SM SCT120=

USA.gov is the U.S. government's official web portal to all federal, state and local government web resources and services.